D/T METAR WX W/DIR W/SPE G/SPE TEMP DEWP
23/05/19 13:20 EGPD 231220Z AUTO 27017KT 240V300 9999 BKN034 14/07 Q1009 W (270°) 19.6mph 14°C 7°C
23/05/19 12:50 EGPD 231150Z AUTO 27014KT 240V300 9999 BKN031 BKN037 15/08 Q1009 W (270°) 16.1mph 15°C 8°C
23/05/19 12:20 EGPD 231120Z AUTO 27016KT 9999 BKN030 BKN044 13/07 Q1009 NOSIG W (270°) 18.4mph 13°C 7°C
23/05/19 11:50 EGPD 231050Z AUTO 27013KT 230V300 9999 BKN029 OVC046 13/07 Q1009 NOSIG W (270°) 15.0mph 13°C 7°C
23/05/19 11:20 EGPD 231020Z AUTO 27016KT 9999 BKN030 OVC049 12/07 Q1009 NOSIG W (270°) 18.4mph 12°C 7°C
23/05/19 10:50 EGPD 230950Z AUTO 27014KT 9999 BKN030 BKN037 12/07 Q1010 NOSIG W (270°) 16.1mph 12°C 7°C
23/05/19 10:20 EGPD 230920Z AUTO 28012KT 250V310 9999 BKN027 12/07 Q1010 NOSIG W (280°) 13.8mph 12°C 7°C
23/05/19 09:50 EGPD 230850Z AUTO 28010KT 240V310 9999 BKN028 12/07 Q1010 NOSIG W (280°) 11.5mph 12°C 7°C
23/05/19 09:20 EGPD 230820Z AUTO 28010KT 9999 BKN029 12/07 Q1010 NOSIG W (280°) 11.5mph 12°C 7°C
23/05/19 08:50 EGPD 230750Z AUTO 28011KT 9999 BKN027 11/07 Q1010 W (280°) 12.7mph 11°C 7°C
23/05/19 08:20 EGPD 230720Z AUTO 28012KT 9999 FEW029 11/07 Q1010 W (280°) 13.8mph 11°C 7°C
23/05/19 07:50 EGPD 230650Z AUTO 27011KT 9999 NCD 11/07 Q1010 W (270°) 12.7mph 11°C 7°C
23/05/19 07:20 EGPD 230620Z AUTO 27008KT 240V300 9999 NCD 11/07 Q1010 NOSIG W (270°) 9.2mph 11°C 7°C
23/05/19 06:50 EGPD 230550Z AUTO 27009KT 9999 FEW045 11/07 Q1010 NOSIG W (270°) 10.4mph 11°C 7°C
23/05/19 06:20 EGPD 230520Z AUTO 26009KT 9999 SCT033 BKN047 11/07 Q1010 NOSIG W (260°) 10.4mph 11°C 7°C
23/05/19 05:50 EGPD 230450Z AUTO 24009KT 9999 SCT025 BKN033 OVC047 10/07 Q1010 NOSIG WSW (240°) 10.4mph 10°C 7°C
23/05/19 05:20 EGPD 230420Z AUTO 26010KT 9999 FEW026 SCT044 10/07 Q1010 NOSIG W (260°) 11.5mph 10°C 7°C
23/05/19 04:50 EGPD 230350Z AUTO 27009KT 9999 NCD 10/07 Q1010 NOSIG W (270°) 10.4mph 10°C 7°C
23/05/19 04:20 EGPD 230320Z AUTO 28008KT 9999 NCD 10/07 Q1010 NOSIG W (280°) 9.2mph 10°C 7°C
23/05/19 03:50 EGPD 230250Z AUTO 29011KT 9999 NCD 10/06 Q1010 NOSIG WNW (290°) 12.7mph 10°C 6°C
23/05/19 03:20 EGPD 230220Z AUTO 29010KT 9999 NCD 10/06 Q1010 WNW (290°) 11.5mph 10°C 6°C
23/05/19 02:50 EGPD 230150Z AUTO 27008KT 9999 SCT023 10/07 Q1011 NOSIG W (270°) 9.2mph 10°C 7°C
23/05/19 02:20 EGPD 230120Z AUTO 29011KT 9999 NCD 10/07 Q1011 NOSIG WNW (290°) 12.7mph 10°C 7°C
23/05/19 01:50 EGPD 230050Z AUTO 29010KT 9999 FEW022 SCT035 10/07 Q1011 WNW (290°) 11.5mph 10°C 7°C
23/05/19 01:20 EGPD 230020Z AUTO 30012KT 9999 FEW039 10/07 Q1011 WNW (300°) 13.8mph 10°C 7°C
23/05/19 00:50 EGPD 222350Z AUTO 29014KT 9999 SCT021 10/07 Q1011 WNW (290°) 16.1mph 10°C 7°C
23/05/19 00:20 EGPD 222320Z AUTO 29014KT 9999 FEW022 SCT026 BKN032 10/07 Q1011 WNW (290°) 16.1mph 10°C 7°C
22/05/19 23:50 EGPD 222250Z AUTO 28011KT 9999 NCD 10/07 Q1011 W (280°) 12.7mph 10°C 7°C
22/05/19 23:20 EGPD 222220Z AUTO 28011KT 9999 NCD 10/07 Q1011 W (280°) 12.7mph 10°C 7°C
22/05/19 22:50 EGPD 222150Z 27011KT CAVOK 10/07 Q1012 NOSIG W (270°) 12.7mph 10°C 7°C
22/05/19 22:20 EGPD 222120Z AUTO 29011KT 9999 NCD 11/07 Q1012 WNW (290°) 12.7mph 11°C 7°C
22/05/19 21:50 EGPD 222050Z AUTO 28011KT 9999 NCD 11/07 Q1012 NOSIG W (280°) 12.7mph 11°C 7°C
22/05/19 21:20 EGPD 222020Z 29008KT 9999 FEW044 11/07 Q1012 WNW (290°) 9.2mph 11°C 7°C
22/05/19 20:50 EGPD 221950Z 30013KT 9999 SCT044 11/07 Q1012 NOSIG WNW (300°) 15.0mph 11°C 7°C
22/05/19 20:20 EGPD 221920Z 30017KT 9999 SCT022 SCT032 11/07 Q1012 WNW (300°) 19.6mph 11°C 7°C
22/05/19 19:50 EGPD 221850Z AUTO 29012KT 9999 SCT022 BKN028 11/08 Q1012 NOSIG WNW (290°) 13.8mph 11°C 8°C
22/05/19 19:20 EGPD 221820Z 29013KT 9999 SCT026 BKN045 11/08 Q1012 WNW (290°) 15.0mph 11°C 8°C
22/05/19 18:50 EGPD 221750Z 29012KT 9999 FEW015 SCT028 12/08 Q1012 NOSIG WNW (290°) 13.8mph 12°C 8°C
22/05/19 18:20 EGPD 221720Z 31016KT 9999 VCSH SCT022CB SCT027 12/08 Q1012 VCSH NW (310°) 18.4mph 12°C 8°C
22/05/19 17:50 EGPD 221650Z 30014KT 9999 VCSH SCT024CB BKN035 13/08 Q1012 VCSH WNW (300°) 16.1mph 13°C 8°C
22/05/19 17:20 EGPD 221620Z AUTO 30014KT 270V330 9999 BKN022 BKN033 13/08 Q1012 WNW (300°) 16.1mph 13°C 8°C
22/05/19 16:50 EGPD 221550Z 29012KT 9999 VCSH FEW018CB SCT028 13/09 Q1012 NOSIG VCSH WNW (290°) 13.8mph 13°C 9°C
22/05/19 16:20 EGPD 221520Z 30017KT 9999 VCSH FEW014CB SCT028 SCT041 13/09 Q1012 NOSIG VCSH WNW (300°) 19.6mph 13°C 9°C
22/05/19 15:50 EGPD 221450Z 29014KT 9999 VCSH FEW014CB SCT028 SCT041 13/10 Q1012 VCSH WNW (290°) 16.1mph 13°C 10°C
22/05/19 15:20 EGPD 221420Z 30012KT 9999 VCSH SCT015CB SCT022 BKN041 12/10 Q1013 VCSH WNW (300°) 13.8mph 12°C 10°C
22/05/19 14:20 EGPD 221320Z 28010KT 9999 VCSH FEW021CB BKN028 BKN035 12/09 Q1013 VCSH W (280°) 11.5mph 12°C 9°C
22/05/19 13:50 EGPD 221250Z 28014KT 250V310 9999 VCSH FEW018CB SCT032 13/10 Q1013 VCSH W (280°) 16.1mph 13°C 10°C
22/05/19 12:50 EGPD 221150Z 26010KT 9999 VCSH FEW016 SCT035 11/09 Q1013 TEMPO SHRA VCSH W (260°) 11.5mph 11°C 9°C